DIRECCIÓN GENERAL DE AERONÁUTICA CIVIL
DIRECCIÓN METEOROLÓGICA DE CHILE
INFORMACIÓN METAR Y TAF

FIR PUERTO MONTT

Estación: SCQP
METAR SCQP 211500Z 17009KT 140V210 9999 BKN045 14/03 Q1023=

TAF SCQP 211030Z 2112/2212 VRB02KT 9999 SCT040 TX16/2119Z TN04/2209Z BECMG 2116/2118 24012KT TEMPO 2119/2200 -SHRA BKN030 BECMG 2204/2206 VRB02KT SCT030 TEMPO 2209/2211 1200 BR FEW010=

Estación: SCVD
METAR SCVD 211500Z 19008KT 130V270 9999 SCT040 15/03 Q1024=

TAF SCVD 211040Z 2112/2200 VRB02KT 9999 BKN030 TN07/2112Z TX16/2119Z TEMPO 2112/2113 1000 BCFG SCT010 BECMG 2118/2120 25012KT SCT040=

Estación: SCJO
METAR SCJO 211500Z 16005KT 080V230 9999 BKN035 13/03 Q1024=

TAF SCJO 211040Z 2112/2200 VRB02KT 9999 BKN035 TN05/2110Z TX14/2119Z BECMG 2118/2120 19012KT=

Estación: SCTE
METAR SCTE 211500Z 17012KT 9999 BKN060 12/04 Q1023 NOSIG=

TAF SCTE 211030Z 2112/2212 VRB02KT 9999 BKN040 TX14/2119Z TN05/2210Z TEMPO 2115/2119 -SHRA BECMG 2118/2120 16012KT BECMG 2204/2206 VRB02KT TEMPO 2208/2210 3000 BR SCT040=

Estación: SCPQ
METAR SCPQ 211500Z 20007KT 150V240 9999 -SHRA SCT022 BKN032 10/06 Q1023=

TAF SCPQ 211040Z 2112/2200 22010KT 9999 BKN030 TN07/2112Z TX12/2119Z TEMPO 2116/2119 -SHRA=

Estación: SCON
METAR SCON 211500Z AUTO 21003KT 180V240 9999 ///036 12/03 Q1023=

TAF SCON 211040Z 2112/2200 24010KT 9999 BKN030 TN10/2112Z TX13/2119Z TEMPO 2116/2119 -SHRA=

Estación: SCTN
METAR SCTN 211500Z AUTO /////KT ///V/// //// R/////// // NCD ///// Q////=

NIL=

Estación: SCFT
METAR SCFT 211500Z AUTO 29003KT 210V340 CAVOK 10/00 Q1021=

NIL=

Estación: SCAP
METAR SCAP 211500Z AUTO 25012KT 180V270 //// // NSC 11/00 Q1026=

NIL=

Estación: SCMK
METAR SCMK 201600Z 20010KT 9999 BKN020 13/06 Q1013=

TAF SCMK 211040Z 2112/2200 23010KT 9999 BKN025 TN10/2112Z TX13/2119Z TEMPO 2116/2119 -SHRA=

Estación: SCAS
METAR SCAS 191900Z 26013G24KT 9999 -SHRA BKN036 10/01 Q1003=

NIL=

Estación: SCCY
METAR SCCY 211500Z 21004KT 9999 SCT040 BKN200 12/01 Q1018 =

TAF SCCY 211040Z 2112/2200 24005KT 9999 SCT040 BKN070 TN05/2112Z TX13 /2119Z TEMPO 2115/2118 -SHRA BKN030 BECMG 2119/2121 SCT060=

Estación: SCBA
METAR SCBA 211400Z 30016KT 270V340 9999 SCT050 BKN200 09/00 Q1016=

TAF SCBA 211030Z 2112/2212 30020KT 9999 SCT040 TX10/2119Z TN02/2209Z BECMG 2112/2114 CAVOK BECMG 2201/2203 9999 SCT040=

Estación: SCCC
METAR SCCC 191900Z 30024KT 9999 SCT040 11/M07 Q0996=

NIL=

Estación: SCHR
METAR SCHR 191900Z 25012KT 9999 BKN040 10/M04 Q0994=

TAF SCHR 191037Z 1912/2000 26007KT 9000 FEW037 SCT046 TX09/1918Z TN02/2000Z TEMPO 1913/1917 22011KT 5000 SHRA -SHGR SCT016 BKN025 BECMG 1920/1922 29010KT 9999 SCT040=


Volver